Time;durP1;ratioP1;P1;durP2;ratioP2;P2;SDS_P1;SDS_P2;PMS_P1;PMS_P2;Temp;Humidity;BMP_temperature;BMP_pressure;BME280_temperature;BME280_humidity;BME280_pressure;Samples;Min_cycle;Max_cycle;Signal;HPM_P1;HPM_P2
2022/08/14 00:02:00;;;;;;;2.20;1.58;;;;;;;24.17;56.77;98980.69;5109871;28;20027;-82
2022/08/14 00:04:26;;;;;;;2.10;1.30;;;;;;;24.29;56.49;98974.28;5119330;27;20034;-82
2022/08/14 00:06:52;;;;;;;1.23;0.90;;;;;;;24.57;55.73;98969.28;5125700;27;20503;-82
2022/08/14 00:09:17;;;;;;;2.50;1.30;;;;;;;24.54;55.69;98968.69;5108196;27;20063;-81
2022/08/14 00:11:43;;;;;;;1.80;1.70;;;;;;;24.39;55.66;98933.09;5106085;28;20019;-82
2022/08/14 00:14:08;;;;;;;2.25;1.88;;;;;;;24.33;55.93;98957.84;5115957;27;20564;-82
2022/08/14 00:16:34;;;;;;;2.83;2.05;;;;;;;24.53;55.89;98969.66;5119036;27;20465;-83
2022/08/14 00:18:59;;;;;;;1.83;1.73;;;;;;;24.42;55.84;98944.47;5123577;27;20032;-83
2022/08/14 00:21:25;;;;;;;1.75;1.60;;;;;;;24.60;55.28;98963.66;5109055;28;20089;-81
2022/08/14 00:23:52;;;;;;;2.40;1.13;;;;;;;24.49;55.61;98953.75;5109513;28;20028;-81
2022/08/14 00:26:18;;;;;;;0.88;0.85;;;;;;;24.34;55.61;98922.69;5109009;28;20035;-81
2022/08/14 00:28:44;;;;;;;6.32;2.08;;;;;;;24.41;55.78;98945.47;5124376;27;20083;-81
2022/08/14 00:31:09;;;;;;;4.97;2.50;;;;;;;24.51;55.54;98958.16;5108653;28;20065;-80
2022/08/14 00:33:36;;;;;;;2.85;2.10;;;;;;;24.41;55.80;98926.59;5119438;27;20504;-80
2022/08/14 00:36:02;;;;;;;1.23;1.13;;;;;;;24.65;55.25;98947.94;5129362;27;20077;-80
2022/08/14 00:38:27;;;;;;;2.08;1.75;;;;;;;24.67;55.08;98945.97;5126622;27;20058;-80
2022/08/14 00:40:53;;;;;;;2.65;2.40;;;;;;;24.66;54.91;98935.31;5130508;27;20037;-81
2022/08/14 00:43:18;;;;;;;3.75;1.70;;;;;;;24.62;54.93;98940.13;5130015;27;20075;-82
2022/08/14 00:45:44;;;;;;;4.65;1.25;;;;;;;24.70;55.12;98950.25;5129189;27;20043;-82
2022/08/14 00:48:10;;;;;;;1.98;1.67;;;;;;;24.61;54.71;98929.47;5112776;27;20036;-81
2022/08/14 00:50:36;;;;;;;22.27;2.60;;;;;;;24.66;55.01;98930.75;5108902;28;20039;-82
2022/08/14 00:53:02;;;;;;;0.93;0.93;;;;;;;24.47;54.89;98914.44;5122335;27;20059;-84
2022/08/14 00:55:29;;;;;;;2.20;1.67;;;;;;;24.66;54.72;98935.31;5129399;27;20035;-82
2022/08/14 01:00:40;;;;;;;2.83;2.50;;;;;;;24.56;55.33;98929.84;5128952;27;20123;-83
2022/08/14 01:03:07;;;;;;;2.60;2.25;;;;;;;24.39;55.69;98925.00;5115603;27;20467;-82
2022/08/14 01:05:33;;;;;;;2.75;2.47;;;;;;;24.44;55.08;98931.72;5108412;28;20039;-82
2022/08/14 01:08:00;;;;;;;1.50;1.40;;;;;;;24.46;55.15;98942.38;5107917;28;20039;-80
2022/08/14 01:10:49;;;;;;;0.95;0.93;;;;;;;24.28;55.46;98931.28;5108702;28;20105;-81
2022/08/14 01:13:15;;;;;;;1.90;1.75;;;;;;;24.26;55.49;98944.91;5107880;28;20040;-81
2022/08/14 01:15:45;;;;;;;5.82;2.30;;;;;;;23.98;55.95;98926.66;5126959;27;20043;-80
2022/08/14 01:21:10;;;;;;;;;;;;;;;24.09;56.33;98935.53;5108082;28;20127;-80
2022/08/14 01:23:39;;;;;;;0.93;0.88;;;;;;;23.88;56.75;98913.06;5108516;28;19954;-80
2022/08/14 01:26:05;;;;;;;2.20;1.98;;;;;;;24.04;56.95;98923.44;5112014;27;20139;-80
2022/08/14 01:28:34;;;;;;;1.10;1.02;;;;;;;24.07;56.86;98928.56;5128274;27;20034;-80
2022/08/14 01:31:00;;;;;;;2.13;1.63;;;;;;;24.08;57.25;98930.25;5128488;27;20027;-80
2022/08/14 01:33:28;;;;;;;3.35;2.55;;;;;;;23.72;57.47;98892.75;5128680;27;20507;-80
2022/08/14 01:35:59;;;;;;;1.55;1.42;;;;;;;24.10;57.26;98941.78;5124923;27;20039;-80
2022/08/14 01:38:33;;;;;;;1.90;1.70;;;;;;;24.05;57.52;98933.22;5089651;28;20027;-80
2022/08/14 01:41:26;;;;;;;1.80;1.70;;;;;;;24.22;56.92;98934.50;5089741;28;20043;-81
2022/08/14 01:44:02;;;;;;;0.70;0.70;;;;;;;24.24;56.56;98914.53;5105567;28;20390;-81
2022/08/14 01:46:32;;;;;;;0.50;0.50;;;;;;;24.31;56.77;98939.13;5094860;27;20499;-80
2022/08/14 01:48:58;;;;;;;0.60;0.60;;;;;;;24.30;56.79;98930.19;5128094;27;20034;-80
2022/08/14 01:51:27;;;;;;;2.58;1.88;;;;;;;24.22;56.87;98910.25;5128511;27;20027;-81
2022/08/14 01:53:59;;;;;;;2.58;1.95;;;;;;;24.27;56.91;98914.28;5112296;28;20032;-82
2022/08/14 01:56:37;;;;;;;3.30;2.33;;;;;;;24.34;56.99;98911.91;5122162;27;20039;-82
2022/08/14 01:59:09;;;;;;;1.85;1.63;;;;;;;24.34;57.24;98914.59;5107880;28;20027;-81
2022/08/14 02:01:36;;;;;;;0.45;0.45;;;;;;;24.24;57.06;98900.22;5107590;28;20038;-81
2022/08/14 02:04:03;;;;;;;2.85;1.75;;;;;;;24.12;57.13;98892.16;5117758;28;20035;-81
2022/08/14 02:06:29;;;;;;;2.35;2.15;;;;;;;24.02;57.44;98893.94;5108105;28;20482;-81
2022/08/14 02:08:56;;;;;;;3.13;2.80;;;;;;;24.16;57.30;98911.66;5112925;28;20036;-81
2022/08/14 02:11:22;;;;;;;4.00;2.70;;;;;;;24.15;57.54;98909.09;5127397;27;20186;-80
2022/08/14 02:13:58;;;;;;;1.50;1.40;;;;;;;24.15;57.78;98914.47;5128239;28;20112;-80
2022/08/14 02:16:31;;;;;;;1.02;0.95;;;;;;;24.06;58.11;98898.06;5126666;27;20722;-81
2022/08/14 02:18:59;;;;;;;1.35;1.27;;;;;;;24.03;58.21;98892.09;5120119;27;20088;-81
2022/08/14 02:21:27;;;;;;;1.40;1.13;;;;;;;24.21;57.70;98912.09;5113515;27;20036;-80
2022/08/14 02:23:54;;;;;;;3.10;1.35;;;;;;;24.01;57.89;98886.84;5111396;28;20023;-81
2022/08/14 02:26:25;;;;;;;2.75;1.08;;;;;;;24.11;57.59;98898.56;5111169;28;20028;-81
2022/08/14 02:28:54;;;;;;;6.35;2.92;;;;;;;24.10;57.78;98902.22;5112945;27;20036;-82
2022/08/14 02:31:20;;;;;;;2.35;2.05;;;;;;;23.88;58.29;98895.09;5128159;27;20031;-81
2022/08/14 02:33:46;;;;;;;3.38;1.50;;;;;;;23.67;58.63;98878.00;5131647;27;20509;-80
2022/08/14 02:36:13;;;;;;;2.15;1.85;;;;;;;23.59;58.57;98866.00;5126084;27;20028;-82
2022/08/14 02:38:39;;;;;;;1.85;1.60;;;;;;;23.87;58.27;98904.16;5120355;27;20114;-81
2022/08/14 02:41:09;;;;;;;2.22;1.95;;;;;;;23.81;58.21;98879.53;5110902;28;20088;-81
2022/08/14 02:43:37;;;;;;;3.53;1.83;;;;;;;23.81;58.66;98896.53;5111254;28;20537;-81
2022/08/14 02:46:05;;;;;;;2.60;2.35;;;;;;;23.56;58.84;98852.81;5110665;28;20048;-82
2022/08/14 02:48:35;;;;;;;3.90;2.67;;;;;;;23.58;58.76;98866.13;5126235;27;20039;-81
2022/08/14 02:51:05;;;;;;;3.72;2.15;;;;;;;23.71;58.53;98880.31;5110627;28;20035;-80
2022/08/14 02:53:31;;;;;;;1.13;1.02;;;;;;;23.77;58.46;98868.16;5095196;28;20024;-80
2022/08/14 02:55:59;;;;;;;2.15;1.75;;;;;;;23.72;58.29;98867.69;5115232;27;20149;-81
2022/08/14 02:58:25;;;;;;;2.03;1.83;;;;;;;23.34;59.62;98869.84;5115662;27;20027;-81
2022/08/14 03:00:51;;;;;;;1.92;1.75;;;;;;;23.06;60.29;98857.72;5117338;27;21713;-81
2022/08/14 03:03:19;;;;;;;1.92;1.58;;;;;;;22.77;61.50;98862.72;5129331;27;20038;-81
2022/08/14 03:05:44;;;;;;;1.90;1.55;;;;;;;22.68;61.76;98859.78;5123146;27;20172;-82
2022/08/14 03:08:12;;;;;;;4.00;2.58;;;;;;;22.51;62.21;98857.56;5113698;27;20521;-81
2022/08/14 03:10:38;;;;;;;2.22;1.60;;;;;;;22.55;62.21;98867.09;5132622;27;20042;-81
2022/08/14 03:13:05;;;;;;;4.25;1.83;;;;;;;22.47;61.57;98845.34;5131830;27;20519;-81
2022/08/14 03:15:38;;;;;;;1.17;1.10;;;;;;;22.49;62.19;98875.63;5130825;27;20051;-82
2022/08/14 03:18:04;;;;;;;2.55;1.42;;;;;;;22.41;62.31;98875.38;5126727;27;20040;-82
2022/08/14 03:20:30;;;;;;;2.63;2.40;;;;;;;22.36;61.92;98851.53;5112606;27;20036;-81
2022/08/14 03:23:00;;;;;;;4.72;1.15;;;;;;;22.44;61.96;98857.19;5131472;27;20035;-81
2022/08/14 03:25:29;;;;;;;4.80;2.83;;;;;;;22.57;61.67;98872.34;5131247;27;20027;-81
2022/08/14 03:27:55;;;;;;;4.75;2.40;;;;;;;22.33;61.87;98841.88;5130606;27;20037;-82
2022/08/14 03:30:20;;;;;;;3.05;2.85;;;;;;;22.70;61.47;98878.47;5129242;27;20550;-82
2022/08/14 03:32:46;;;;;;;3.78;2.22;;;;;;;22.58;60.91;98848.03;5109979;28;20027;-81
2022/08/14 03:35:11;;;;;;;2.83;2.58;;;;;;;22.84;60.51;98866.66;5117451;27;20035;-81
2022/08/14 03:37:37;;;;;;;3.97;1.25;;;;;;;22.99;60.09;98873.50;5127096;27;20114;-81
2022/08/14 03:40:05;;;;;;;3.13;1.38;;;;;;;23.10;59.87;98869.13;5110185;28;20031;-83
2022/08/14 03:42:31;;;;;;;1.42;1.33;;;;;;;23.23;59.45;98885.97;5119495;27;20046;-82
2022/08/14 03:44:57;;;;;;;7.93;2.33;;;;;;;23.32;59.13;98893.31;5110672;27;20032;-82
2022/08/14 03:47:24;;;;;;;2.22;1.95;;;;;;;23.30;58.72;98878.31;5116620;27;20114;-81
2022/08/14 03:49:49;;;;;;;2.65;2.38;;;;;;;23.20;58.92;98878.16;5121201;27;20031;-81
2022/08/14 03:52:15;;;;;;;3.92;2.75;;;;;;;22.93;59.71;98865.06;5119770;27;20053;-82
2022/08/14 03:54:40;;;;;;;2.30;1.90;;;;;;;23.14;59.00;98865.19;5120121;27;20130;-81
2022/08/14 03:57:07;;;;;;;2.40;2.20;;;;;;;23.14;59.18;98873.28;5130225;27;20038;-82
2022/08/14 03:59:33;;;;;;;4.10;1.85;;;;;;;23.27;59.44;98897.38;5118006;27;20458;-81
2022/08/14 04:02:02;;;;;;;7.28;4.30;;;;;;;23.14;59.74;98894.78;5109491;27;20032;-81
2022/08/14 04:04:29;;;;;;;2.55;2.35;;;;;;;23.21;60.12;98893.34;5109851;28;20042;-80
2022/08/14 04:06:54;;;;;;;5.07;2.58;;;;;;;23.25;59.93;98897.50;5109416;28;20766;-80
2022/08/14 04:09:20;;;;;;;2.88;2.47;;;;;;;23.49;59.56;98907.25;5117878;27;20035;-81
2022/08/14 04:11:45;;;;;;;1.73;1.63;;;;;;;23.41;59.55;98891.72;5119325;27;20063;-81
2022/08/14 04:14:13;;;;;;;5.13;2.28;;;;;;;23.54;59.75;98905.03;5110584;27;20468;-81
2022/08/14 04:16:41;;;;;;;5.10;2.53;;;;;;;23.52;59.71;98898.94;5109382;28;20505;-81
2022/08/14 04:19:07;;;;;;;3.28;2.63;;;;;;;23.62;59.74;98913.38;5117289;27;20039;-81
2022/08/14 04:21:32;;;;;;;3.70;2.47;;;;;;;23.57;59.39;98875.19;5121287;27;20500;-81
2022/08/14 04:24:00;;;;;;;7.13;2.53;;;;;;;23.35;60.93;98898.44;5109264;28;20070;-81
2022/08/14 04:26:29;;;;;;;2.80;2.47;;;;;;;23.17;61.95;98910.69;5108714;28;20054;-80
2022/08/14 04:28:55;;;;;;;3.47;2.38;;;;;;;23.21;62.27;98923.78;5113782;27;20057;-81
2022/08/14 04:31:22;;;;;;;5.10;3.55;;;;;;;23.16;62.56;98917.06;5124174;27;20042;-80
2022/08/14 04:33:51;;;;;;;4.05;3.65;;;;;;;22.93;62.80;98892.81;5129372;27;20027;-81
2022/08/14 04:36:17;;;;;;;4.60;2.65;;;;;;;22.99;63.97;98939.88;5129073;27;20030;-81
2022/08/14 04:44:11;;;;;;;4.30;2.75;;;;;;;22.76;65.35;98887.91;5129279;27;20191;-82
2022/08/14 04:46:36;;;;;;;4.88;4.47;;;;;;;23.23;64.06;98924.53;5129137;27;20122;-82
2022/08/14 04:49:04;;;;;;;5.63;3.40;;;;;;;23.33;64.20;98897.72;5122725;27;20031;-81
2022/08/14 04:51:30;;;;;;;2.78;2.42;;;;;;;23.37;64.37;98909.97;5126342;27;20121;-82
2022/08/14 04:53:55;;;;;;;5.30;2.85;;;;;;;23.72;63.55;98925.06;5108241;28;20058;-82
2022/08/14 04:56:23;;;;;;;4.15;2.58;;;;;;;23.57;63.19;98912.84;5108343;28;20481;-82
2022/08/14 04:58:56;;;;;;;5.75;4.80;;;;;;;23.36;62.54;98896.63;5127586;27;20125;-81
2022/08/14 05:01:23;;;;;;;1.70;1.58;;;;;;;23.60;62.02;98924.25;5129051;27;20042;-80
2022/08/14 05:03:48;;;;;;;4.18;2.58;;;;;;;23.77;61.38;98905.84;5126863;27;20086;-81
2022/08/14 05:06:14;;;;;;;2.47;1.50;;;;;;;23.54;62.13;98896.97;5128244;27;20480;-80
2022/08/14 05:08:42;;;;;;;6.65;2.72;;;;;;;23.60;62.62;98901.84;5118735;27;20413;-80
2022/08/14 05:11:09;;;;;;;3.97;2.58;;;;;;;23.90;62.11;98900.34;5128549;27;20091;-81
2022/08/14 05:13:39;;;;;;;4.00;2.63;;;;;;;24.22;61.05;98912.94;5108380;27;20031;-80
2022/08/14 05:16:06;;;;;;;1.67;1.58;;;;;;;24.23;61.07;98891.25;5108099;28;20794;-81
2022/08/14 05:18:34;;;;;;;20.70;3.63;;;;;;;24.18;60.51;98884.56;5112545;27;20031;-80
2022/08/14 05:21:03;;;;;;;5.45;3.30;;;;;;;24.15;61.34;98899.16;5102129;27;20036;-80
2022/08/14 05:23:30;;;;;;;2.05;1.85;;;;;;;24.36;61.31;98901.88;5107945;27;20053;-79
2022/08/14 05:26:02;;;;;;;4.55;2.75;;;;;;;24.34;59.88;98860.72;5088617;28;20543;-81
2022/08/14 05:28:30;;;;;;;2.38;2.17;;;;;;;24.58;59.67;98900.94;5096179;28;20406;-81
2022/08/14 05:30:59;;;;;;;3.72;3.22;;;;;;;24.46;60.10;98886.63;5105843;28;20077;-79
2022/08/14 05:33:27;;;;;;;2.40;2.20;;;;;;;24.23;60.38;98875.09;5107375;28;20223;-79
2022/08/14 05:35:59;;;;;;;1.92;1.80;;;;;;;24.55;60.23;98867.97;5090545;28;20100;-81
2022/08/14 05:38:28;;;;;;;4.63;3.13;;;;;;;24.86;59.90;98882.34;5107471;28;20036;-80
2022/08/14 05:40:55;;;;;;;4.32;3.22;;;;;;;25.21;58.44;98891.91;5107665;28;20496;-80
2022/08/14 05:43:21;;;;;;;3.13;2.83;;;;;;;25.30;57.89;98891.13;5107448;28;20027;-84
2022/08/14 05:45:47;;;;;;;9.13;2.72;;;;;;;25.31;58.64;98889.25;5089231;28;20156;-80
2022/08/14 05:48:14;;;;;;;1.75;1.08;;;;;;;25.42;57.34;98896.41;5107512;28;20535;-82
2022/08/14 05:50:41;;;;;;;2.83;2.58;;;;;;;25.42;57.68;98872.94;5107137;28;20032;-79
2022/08/14 05:53:07;;;;;;;3.38;3.10;;;;;;;25.71;57.37;98889.22;5096015;28;20569;-79
2022/08/14 05:55:33;;;;;;;3.25;2.83;;;;;;;25.54;56.51;98873.69;5086312;28;20039;-80
2022/08/14 05:58:01;;;;;;;2.35;2.05;;;;;;;25.55;55.40;98881.66;5086503;28;20127;-79
2022/08/14 06:00:34;;;;;;;3.88;2.78;;;;;;;25.46;55.67;98885.19;5110515;27;20088;-81
2022/08/14 06:03:01;;;;;;;4.82;3.35;;;;;;;25.62;55.96;98903.56;5114371;28;20118;-80
2022/08/14 06:05:27;;;;;;;5.55;3.67;;;;;;;25.68;55.77;98902.16;5113226;28;20027;-80
2022/08/14 06:07:53;;;;;;;3.53;3.20;;;;;;;25.29;55.52;98888.56;5127750;27;20568;-79
2022/08/14 06:10:18;;;;;;;4.45;2.78;;;;;;;25.25;55.93;98890.63;5126919;27;20122;-80
2022/08/14 06:12:44;;;;;;;1.58;1.48;;;;;;;25.27;56.31;98895.88;5127375;28;20031;-79
2022/08/14 06:15:10;;;;;;;3.67;2.92;;;;;;;25.45;56.57;98896.13;5114123;27;20087;-80
2022/08/14 06:17:44;;;;;;;4.18;3.00;;;;;;;25.32;56.24;98878.31;5090672;28;20137;-80
2022/08/14 06:20:10;;;;;;;3.35;2.80;;;;;;;25.34;56.08;98887.13;5127082;28;20024;-80
2022/08/14 06:22:35;;;;;;;6.18;2.67;;;;;;;24.99;56.87;98879.44;5126072;28;20064;-81
2022/08/14 06:25:01;;;;;;;3.05;2.63;;;;;;;24.75;57.81;98879.75;5111818;28;20024;-79
2022/08/14 06:27:27;;;;;;;3.00;2.22;;;;;;;24.98;57.94;98883.97;5107186;28;20051;-81
2022/08/14 06:29:52;;;;;;;2.50;2.30;;;;;;;24.72;57.94;98891.66;5099746;28;20485;-79
2022/08/14 06:32:18;;;;;;;7.55;4.90;;;;;;;24.48;58.46;98871.19;5104120;28;20497;-79
2022/08/14 06:34:43;;;;;;;8.50;6.18;;;;;;;24.75;58.57;98879.75;5106931;28;20062;-79
2022/08/14 06:37:09;;;;;;;12.65;5.10;;;;;;;24.98;57.80;98896.63;5098633;28;20462;-81
2022/08/14 06:39:34;;;;;;;5.50;3.22;;;;;;;24.81;57.33;98895.41;5089113;28;20028;-80
2022/08/14 06:42:00;;;;;;;1.17;1.10;;;;;;;24.28;59.50;98882.78;5094537;28;20031;-80
2022/08/14 06:44:27;;;;;;;2.95;2.65;;;;;;;24.20;59.89;98890.69;5092431;28;20031;-82
2022/08/14 06:46:52;;;;;;;8.88;3.35;;;;;;;24.09;60.64;98895.13;5106759;28;20047;-79
2022/08/14 06:49:18;;;;;;;8.60;4.10;;;;;;;24.00;60.85;98895.88;5106749;28;20031;-80
2022/08/14 06:51:45;;;;;;;3.90;3.53;;;;;;;24.06;61.28;98902.63;5104204;28;20036;-79
2022/08/14 06:54:12;;;;;;;2.40;2.20;;;;;;;24.21;61.06;98908.56;5109479;28;20031;-79
2022/08/14 06:56:38;;;;;;;3.05;2.15;;;;;;;24.21;59.94;98917.50;5112789;28;20383;-79
2022/08/14 06:59:04;;;;;;;2.55;1.98;;;;;;;24.29;58.86;98906.06;5082889;28;20051;-81
2022/08/14 07:06:57;;;;;;;2.30;2.10;;;;;;;24.16;59.47;98898.19;5108038;28;20500;-81
2022/08/14 07:09:23;;;;;;;1.92;1.75;;;;;;;24.53;58.35;98934.59;5109979;28;20032;-80
2022/08/14 07:11:49;;;;;;;2.15;1.95;;;;;;;24.60;58.93;98907.03;5110034;28;20058;-81
2022/08/14 07:14:14;;;;;;;2.45;2.25;;;;;;;24.86;58.72;98921.97;5110047;28;20042;-81
2022/08/14 07:16:40;;;;;;;2.55;2.28;;;;;;;25.20;57.62;98914.47;5109741;28;20020;-81
2022/08/14 07:19:07;;;;;;;2.05;1.85;;;;;;;24.98;56.56;98910.13;5110269;28;20088;-81
2022/08/14 07:21:33;;;;;;;10.20;3.15;;;;;;;24.70;57.31;98912.50;5109809;28;20032;-82
2022/08/14 07:23:58;;;;;;;4.55;2.65;;;;;;;24.76;57.92;98906.59;5109838;28;20432;-82
2022/08/14 07:26:24;;;;;;;2.03;1.70;;;;;;;24.34;57.64;98921.84;5110188;28;20028;-81
2022/08/14 07:28:49;;;;;;;3.60;2.80;;;;;;;24.18;58.15;98928.53;5109798;28;20059;-81
2022/08/14 07:31:15;;;;;;;2.80;2.58;;;;;;;24.13;58.03;98926.22;5109816;28;20024;-81
2022/08/14 07:33:49;;;;;;;1.67;1.55;;;;;;;24.01;58.29;98904.84;5109387;28;20119;-81
2022/08/14 07:36:16;;;;;;;2.37;2.17;;;;;;;24.17;57.52;98905.25;5108971;28;20031;-81
2022/08/14 07:38:42;;;;;;;2.28;1.90;;;;;;;24.26;57.69;98909.88;5109098;28;20063;-82
2022/08/14 07:41:09;;;;;;;1.70;1.60;;;;;;;24.33;57.68;98920.13;5110185;28;20055;-82
2022/08/14 07:43:36;;;;;;;7.07;2.97;;;;;;;24.33;57.74;98922.81;5109916;28;20129;-81
2022/08/14 07:46:02;;;;;;;6.55;3.60;;;;;;;24.40;57.75;98924.88;5109544;28;20092;-82
2022/08/14 07:48:28;;;;;;;1.75;1.63;;;;;;;24.24;57.36;98902.91;5109881;28;20032;-82
2022/08/14 07:50:54;;;;;;;3.53;2.85;;;;;;;24.38;57.56;98917.91;5109170;28;20046;-81
2022/08/14 07:53:20;;;;;;;4.00;3.50;;;;;;;24.59;57.26;98909.84;5109767;28;20049;-81
2022/08/14 07:55:46;;;;;;;1.70;1.60;;;;;;;24.57;57.42;98919.91;5109302;28;20516;-82
2022/08/14 07:58:12;;;;;;;6.10;2.38;;;;;;;24.99;57.12;98928.84;5109104;28;20827;-82
2022/08/14 08:00:38;;;;;;;2.15;1.95;;;;;;;24.93;55.98;98928.50;5109692;28;20102;-82
2022/08/14 08:03:09;;;;;;;1.98;1.88;;;;;;;24.27;58.15;98922.38;5109753;28;20031;-80
2022/08/14 08:05:38;;;;;;;2.35;1.75;;;;;;;24.35;57.90;98896.63;5124881;27;20428;-80
2022/08/14 08:08:05;;;;;;;4.00;2.60;;;;;;;24.43;57.96;98894.97;5090944;28;20035;-80
2022/08/14 08:10:31;;;;;;;4.32;3.15;;;;;;;24.41;58.67;98915.81;5109409;28;20035;-80
2022/08/14 08:12:59;;;;;;;2.33;1.83;;;;;;;24.35;59.22;98921.72;5109353;28;20043;-79
2022/08/14 08:15:25;;;;;;;3.10;2.70;;;;;;;24.22;59.37;98891.41;5109037;28;20481;-81
2022/08/14 08:17:52;;;;;;;2.05;1.75;;;;;;;25.25;57.67;98906.81;5108459;28;20056;-80
2022/08/14 08:20:25;;;;;;;2.45;2.00;;;;;;;25.14;55.60;98904.22;5109074;28;20031;-78
2022/08/14 08:22:53;;;;;;;2.25;1.42;;;;;;;24.69;56.66;98896.47;5108621;28;20126;-79
2022/08/14 08:25:18;;;;;;;2.30;2.10;;;;;;;24.75;56.83;98886.00;5090750;28;20027;-77
2022/08/14 08:28:02;;;;;;;1.52;1.42;;;;;;;25.19;56.77;98896.56;5108887;28;20040;-79
2022/08/14 08:30:30;;;;;;;1.67;1.55;;;;;;;24.86;55.90;98895.00;5108705;28;20524;-79
2022/08/14 08:32:59;;;;;;;4.85;3.08;;;;;;;24.86;56.42;98882.34;5090505;28;20032;-81
2022/08/14 08:35:27;;;;;;;1.90;1.80;;;;;;;25.12;56.08;98911.59;5108265;28;20032;-79
2022/08/14 08:37:54;;;;;;;4.30;2.05;;;;;;;25.16;55.53;98924.69;5108713;28;20035;-79
2022/08/14 08:40:30;;;;;;;1.70;1.48;;;;;;;25.24;56.99;98931.22;5108703;28;20043;-81
2022/08/14 08:42:56;;;;;;;2.10;1.25;;;;;;;25.00;57.73;98929.72;5108435;28;20138;-78
2022/08/14 08:45:22;;;;;;;1.75;1.52;;;;;;;24.81;57.87;98935.84;5108314;28;20131;-80
2022/08/14 08:47:49;;;;;;;2.90;2.40;;;;;;;24.75;58.62;98912.09;5108709;28;20027;-80
2022/08/14 08:50:44;;;;;;;4.25;2.78;;;;;;;24.61;58.12;98927.63;5108429;28;20066;-78
2022/08/14 08:53:09;;;;;;;3.95;3.35;;;;;;;23.85;58.56;98886.41;5094928;28;20067;-80
2022/08/14 08:55:38;;;;;;;2.65;1.40;;;;;;;24.24;59.22;98928.00;5108334;28;20051;-78
2022/08/14 08:58:06;;;;;;;2.67;2.45;;;;;;;24.28;58.88;98905.22;5107304;28;20032;-81
2022/08/14 09:00:34;;;;;;;1.35;1.13;;;;;;;24.09;59.49;98915.81;5101187;28;20532;-81
2022/08/14 09:03:02;;;;;;;2.78;1.90;;;;;;;23.70;60.38;98913.56;5104116;28;20034;-79
2022/08/14 09:05:29;;;;;;;3.47;2.40;;;;;;;23.91;60.32;98919.06;5090389;28;20119;-80
2022/08/14 09:08:11;;;;;;;1.30;1.20;;;;;;;23.41;61.10;98886.34;5089786;28;20024;-80
2022/08/14 09:10:37;;;;;;;2.05;1.90;;;;;;;23.48;61.46;98898.34;5108158;28;20028;-80
2022/08/14 09:13:03;;;;;;;2.70;2.05;;;;;;;23.40;61.68;98876.56;5108064;28;20096;-81
2022/08/14 09:15:29;;;;;;;1.13;1.05;;;;;;;23.24;62.73;98893.09;5107649;28;20028;-81
2022/08/14 09:17:55;;;;;;;1.23;1.17;;;;;;;23.49;62.81;98916.16;5088075;28;20395;-79
2022/08/14 09:20:20;;;;;;;5.07;2.95;;;;;;;23.45;64.95;98905.78;5087773;28;20030;-80
2022/08/14 09:22:46;;;;;;;10.55;2.90;;;;;;;22.99;66.51;98891.47;5087044;28;20042;-79
2022/08/14 09:25:12;;;;;;;4.90;2.35;;;;;;;22.91;68.27;98927.03;5089378;28;20067;-80
2022/08/14 09:27:37;;;;;;;3.35;3.05;;;;;;;22.60;70.09;98898.97;5108029;28;20137;-82
2022/08/14 09:30:06;;;;;;;3.03;2.00;;;;;;;22.92;70.26;98917.13;5107146;28;20035;-81
2022/08/14 09:33:00;;;;;;;5.72;1.92;;;;;;;22.65;70.88;98915.63;5107786;28;20946;-80
2022/08/14 09:35:47;;;;;;;3.45;2.72;;;;;;;22.83;70.26;98924.06;5101897;28;20047;-81
2022/08/14 09:38:15;;;;;;;3.00;2.78;;;;;;;22.88;69.97;98909.31;5107500;28;20038;-81
2022/08/14 09:41:19;;;;;;;13.30;3.97;;;;;;;22.79;72.69;98919.94;5107555;28;20035;-82
2022/08/14 09:43:50;;;;;;;3.65;3.35;;;;;;;22.49;73.11;98924.88;5107952;28;20035;-81
2022/08/14 09:46:16;;;;;;;4.13;3.72;;;;;;;22.39;73.79;98896.97;5123456;27;20063;-80
2022/08/14 09:48:43;;;;;;;4.25;3.83;;;;;;;22.20;74.95;98908.25;5106858;28;20052;-80
2022/08/14 09:51:22;;;;;;;4.35;3.88;;;;;;;22.26;74.72;98913.16;5088335;28;20051;-80
2022/08/14 09:53:59;;;;;;;3.22;2.42;;;;;;;22.59;75.34;98916.09;5084256;28;20434;-82
2022/08/14 09:56:25;;;;;;;3.83;3.33;;;;;;;22.55;75.56;98912.78;5103685;28;20126;-82
2022/08/14 09:58:51;;;;;;;4.05;3.78;;;;;;;22.03;77.61;98924.75;5093456;28;20061;-82
2022/08/14 10:01:20;;;;;;;5.50;4.28;;;;;;;21.91;78.93;98892.50;5091761;28;20115;-79
2022/08/14 10:03:54;;;;;;;5.18;4.35;;;;;;;21.87;79.49;98877.56;5086636;28;20028;-79
2022/08/14 10:06:26;;;;;;;4.15;3.72;;;;;;;22.26;79.49;98925.72;5095077;28;20035;-78
2022/08/14 10:08:56;;;;;;;4.47;3.90;;;;;;;22.00;81.25;98926.72;5108137;28;20035;-80
2022/08/14 10:11:28;;;;;;;4.22;3.70;;;;;;;21.54;84.20;98879.09;5113663;28;20035;-79
2022/08/14 10:14:10;;;;;;;4.65;4.22;;;;;;;21.52;84.83;98901.66;5112977;28;20026;-78
2022/08/14 10:16:41;;;;;;;2.40;2.22;;;;;;;21.35;85.08;98884.94;5095676;28;20039;-78
2022/08/14 10:19:10;;;;;;;5.05;4.55;;;;;;;21.19;85.58;98873.59;5094910;28;20065;-79
2022/08/14 10:21:42;;;;;;;4.70;2.83;;;;;;;21.29;85.67;98875.50;5086791;28;20019;-78
2022/08/14 10:24:30;;;;;;;5.95;3.83;;;;;;;21.18;85.85;98866.50;5088736;28;20020;-80
2022/08/14 10:26:57;;;;;;;3.63;3.08;;;;;;;21.13;87.09;98845.38;5085515;28;20031;-77
2022/08/14 10:29:34;;;;;;;2.38;2.22;;;;;;;21.32;87.32;98855.66;5088471;28;20035;-79
2022/08/14 10:32:00;;;;;;;7.80;4.13;;;;;;;21.18;88.68;98872.75;5087546;28;20111;-79
2022/08/14 10:34:32;;;;;;;5.25;4.72;;;;;;;21.14;91.18;98873.91;5085534;28;20031;-79
2022/08/14 10:37:12;;;;;;;3.10;2.85;;;;;;;21.25;91.64;98875.84;5091421;28;20040;-79
2022/08/14 10:39:42;;;;;;;5.75;2.75;;;;;;;21.24;91.39;98861.56;5104633;28;20505;-80
2022/08/14 10:42:12;;;;;;;4.40;4.00;;;;;;;21.45;90.73;98887.78;5105211;28;20028;-79
2022/08/14 10:44:40;;;;;;;2.35;2.15;;;;;;;21.66;89.09;98865.75;5102167;28;20047;-80
2022/08/14 10:47:08;;;;;;;3.25;2.95;;;;;;;21.65;88.17;98878.31;5093096;28;20048;-81
2022/08/14 10:49:36;;;;;;;4.68;4.03;;;;;;;21.78;89.18;98886.31;5092446;28;20031;-79
2022/08/14 10:52:08;;;;;;;4.43;3.38;;;;;;;21.78;89.89;98887.19;5110054;28;20581;-79
2022/08/14 10:54:43;;;;;;;2.88;2.63;;;;;;;21.67;90.59;98875.53;5119242;27;20046;-78
2022/08/14 10:57:14;;;;;;;9.10;3.67;;;;;;;21.78;90.21;98873.78;5110710;28;20027;-79
2022/08/14 10:59:54;;;;;;;3.30;2.85;;;;;;;21.87;89.96;98869.53;5120902;27;20087;-79
2022/08/14 11:02:27;;;;;;;3.38;3.08;;;;;;;21.90;89.23;98869.28;5128689;27;20475;-78
2022/08/14 11:04:57;;;;;;;8.07;3.22;;;;;;;21.86;88.79;98826.69;5112353;27;20100;-79
2022/08/14 11:07:25;;;;;;;4.88;3.45;;;;;;;21.81;90.09;98843.13;5109921;27;20038;-79
2022/08/14 11:09:59;;;;;;;5.30;2.95;;;;;;;21.74;88.91;98817.75;5110769;27;20036;-79
2022/08/14 11:12:25;;;;;;;2.60;2.33;;;;;;;21.82;89.26;98815.34;5119516;27;20034;-79
2022/08/14 11:14:58;;;;;;;11.15;3.85;;;;;;;21.73;87.66;98795.41;5123949;27;20040;-79
2022/08/14 11:17:27;;;;;;;3.97;3.40;;;;;;;21.77;88.10;98826.41;5110201;28;20032;-80
2022/08/14 11:19:57;;;;;;;2.75;2.55;;;;;;;21.76;88.32;98845.31;5110147;28;20034;-79
2022/08/14 11:22:27;;;;;;;6.15;1.80;;;;;;;21.87;87.04;98857.94;5092137;27;20067;-80
2022/08/14 11:24:55;;;;;;;5.65;4.55;;;;;;;21.85;87.87;98851.84;5114730;27;20500;-80
2022/08/14 11:27:24;;;;;;;5.70;4.82;;;;;;;21.80;86.62;98862.91;5091777;28;20450;-79
2022/08/14 11:29:49;;;;;;;2.20;2.00;;;;;;;21.90;85.05;98871.97;5123478;27;20035;-79
2022/08/14 11:32:18;;;;;;;2.42;2.22;;;;;;;21.89;85.08;98872.09;5129138;27;20035;-79
2022/08/14 11:34:45;;;;;;;4.63;3.55;;;;;;;21.77;83.19;98839.84;5109566;28;20020;-79
2022/08/14 11:37:11;;;;;;;4.28;3.42;;;;;;;21.88;85.03;98846.25;5124768;27;20047;-81
2022/08/14 11:39:37;;;;;;;3.92;3.55;;;;;;;21.89;84.27;98856.84;5119926;27;20023;-79
2022/08/14 11:42:18;;;;;;;2.90;2.60;;;;;;;21.79;82.95;98869.25;5124188;27;20043;-79
2022/08/14 11:44:43;;;;;;;2.28;2.17;;;;;;;21.69;81.81;98841.38;5117180;27;20076;-80
2022/08/14 11:47:17;;;;;;;4.03;2.50;;;;;;;21.86;81.16;98867.81;5107418;28;20044;-80
2022/08/14 11:49:43;;;;;;;3.20;2.95;;;;;;;21.90;83.25;98877.34;5100211;28;20040;-79
2022/08/14 11:52:10;;;;;;;5.53;4.97;;;;;;;21.89;81.37;98896.25;5104885;28;20032;-80
2022/08/14 11:54:36;;;;;;;2.75;2.10;;;;;;;21.86;81.94;98883.94;5108724;27;20508;-80
2022/08/14 11:57:03;;;;;;;3.53;1.38;;;;;;;22.03;80.48;98898.78;5109476;28;20031;-79